ΕΜΥ, Εθνική Μετεωρολογική Υπηρεσία - Δελτία Καιρού, Προγνώσεις

ΑΕΡΟΝΑΥΤΙΛΙΑ

GREEK AIRPORTS CODES

LGMG 280600Z 00000KT 9999 SCT025 24/16 Q1014 RMK SCT070=

EUROPEAN AIRPORTS CODES

TAF LGMG 280400Z 2806/2815 17010KT 9999 SCT020 TEMPO 2806/2815 17012G22KT PROB30 TEMPO 2806/2815 5000 RA FEW018TCU BKN025=